sensor_id;sensor_type;location;lat;lon;timestamp;P1;durP1;ratioP1;P2;durP2;ratioP2
52458;SDS011;38372;52.902;6.024;2023-02-25T00:02:10;18.63;;;4.03;;
52458;SDS011;38372;52.902;6.024;2023-02-25T00:04:37;22.02;;;3.90;;
52458;SDS011;38372;52.902;6.024;2023-02-25T00:07:04;21.10;;;3.20;;
52458;SDS011;38372;52.902;6.024;2023-02-25T00:09:30;32.53;;;5.68;;
52458;SDS011;38372;52.902;6.024;2023-02-25T00:11:56;14.63;;;3.60;;
52458;SDS011;38372;52.902;6.024;2023-02-25T00:14:21;18.33;;;3.35;;
52458;SDS011;38372;52.902;6.024;2023-02-25T00:16:48;19.63;;;3.63;;
52458;SDS011;38372;52.902;6.024;2023-02-25T00:19:14;16.63;;;3.38;;
52458;SDS011;38372;52.902;6.024;2023-02-25T00:21:39;18.08;;;4.07;;
52458;SDS011;38372;52.902;6.024;2023-02-25T00:24:05;20.58;;;3.28;;
52458;SDS011;38372;52.902;6.024;2023-02-25T00:26:31;23.90;;;5.05;;
52458;SDS011;38372;52.902;6.024;2023-02-25T00:28:57;27.75;;;4.60;;
52458;SDS011;38372;52.902;6.024;2023-02-25T00:31:23;25.10;;;5.25;;
52458;SDS011;38372;52.902;6.024;2023-02-25T00:33:50;25.70;;;4.45;;
52458;SDS011;38372;52.902;6.024;2023-02-25T00:36:17;21.25;;;5.40;;
52458;SDS011;38372;52.902;6.024;2023-02-25T00:38:52;23.33;;;3.78;;
52458;SDS011;38372;52.902;6.024;2023-02-25T00:41:21;17.45;;;2.83;;
52458;SDS011;38372;52.902;6.024;2023-02-25T00:43:51;16.58;;;3.42;;
52458;SDS011;38372;52.902;6.024;2023-02-25T00:46:22;17.55;;;3.75;;
52458;SDS011;38372;52.902;6.024;2023-02-25T00:48:48;20.60;;;3.47;;
52458;SDS011;38372;52.902;6.024;2023-02-25T00:51:15;25.90;;;4.55;;
52458;SDS011;38372;52.902;6.024;2023-02-25T00:53:43;21.40;;;3.83;;
52458;SDS011;38372;52.902;6.024;2023-02-25T00:56:10;26.05;;;3.78;;
52458;SDS011;38372;52.902;6.024;2023-02-25T00:58:42;19.63;;;5.53;;
52458;SDS011;38372;52.902;6.024;2023-02-25T01:01:19;26.75;;;3.97;;
52458;SDS011;38372;52.902;6.024;2023-02-25T01:03:46;14.32;;;3.28;;
52458;SDS011;38372;52.902;6.024;2023-02-25T01:06:12;24.25;;;3.53;;
52458;SDS011;38372;52.902;6.024;2023-02-25T01:08:38;24.42;;;3.97;;
52458;SDS011;38372;52.902;6.024;2023-02-25T01:11:15;24.55;;;4.03;;
52458;SDS011;38372;52.902;6.024;2023-02-25T01:13:45;28.55;;;5.05;;
52458;SDS011;38372;52.902;6.024;2023-02-25T01:16:12;17.25;;;3.85;;
52458;SDS011;38372;52.902;6.024;2023-02-25T01:18:40;12.93;;;4.45;;
52458;SDS011;38372;52.902;6.024;2023-02-25T01:21:06;19.15;;;3.85;;
52458;SDS011;38372;52.902;6.024;2023-02-25T01:23:33;13.88;;;2.63;;
52458;SDS011;38372;52.902;6.024;2023-02-25T01:25:58;19.65;;;2.92;;
52458;SDS011;38372;52.902;6.024;2023-02-25T01:28:26;14.30;;;2.25;;
52458;SDS011;38372;52.902;6.024;2023-02-25T01:30:52;9.90;;;2.70;;
52458;SDS011;38372;52.902;6.024;2023-02-25T01:33:18;19.42;;;3.08;;
52458;SDS011;38372;52.902;6.024;2023-02-25T01:35:44;22.48;;;3.80;;
52458;SDS011;38372;52.902;6.024;2023-02-25T01:38:10;18.83;;;2.85;;
52458;SDS011;38372;52.902;6.024;2023-02-25T01:40:35;16.40;;;3.00;;
52458;SDS011;38372;52.902;6.024;2023-02-25T01:43:03;15.30;;;2.88;;
52458;SDS011;38372;52.902;6.024;2023-02-25T01:45:30;13.50;;;3.00;;
52458;SDS011;38372;52.902;6.024;2023-02-25T01:50:53;16.98;;;3.28;;
52458;SDS011;38372;52.902;6.024;2023-02-25T01:53:28;20.73;;;3.20;;
52458;SDS011;38372;52.902;6.024;2023-02-25T01:55:58;15.95;;;3.13;;
52458;SDS011;38372;52.902;6.024;2023-02-25T01:58:25;22.05;;;3.10;;
52458;SDS011;38372;52.902;6.024;2023-02-25T02:00:51;20.73;;;3.75;;
52458;SDS011;38372;52.902;6.024;2023-02-25T02:03:20;23.35;;;3.75;;
52458;SDS011;38372;52.902;6.024;2023-02-25T02:06:00;16.40;;;3.65;;
52458;SDS011;38372;52.902;6.024;2023-02-25T02:08:33;22.05;;;3.40;;
52458;SDS011;38372;52.902;6.024;2023-02-25T02:11:00;27.38;;;3.80;;
52458;SDS011;38372;52.902;6.024;2023-02-25T02:13:27;18.30;;;4.18;;
52458;SDS011;38372;52.902;6.024;2023-02-25T02:15:59;22.73;;;4.72;;
52458;SDS011;38372;52.902;6.024;2023-02-25T02:18:52;24.98;;;3.67;;
52458;SDS011;38372;52.902;6.024;2023-02-25T02:35:43;19.05;;;3.88;;
52458;SDS011;38372;52.902;6.024;2023-02-25T02:38:40;23.25;;;3.17;;
52458;SDS011;38372;52.902;6.024;2023-02-25T02:41:28;20.50;;;3.08;;
52458;SDS011;38372;52.902;6.024;2023-02-25T02:44:10;14.95;;;3.47;;
52458;SDS011;38372;52.902;6.024;2023-02-25T02:46:54;21.65;;;4.22;;
52458;SDS011;38372;52.902;6.024;2023-02-25T02:49:27;21.60;;;5.45;;
52458;SDS011;38372;52.902;6.024;2023-02-25T02:51:58;15.02;;;2.75;;
52458;SDS011;38372;52.902;6.024;2023-02-25T02:54:28;23.80;;;4.10;;
52458;SDS011;38372;52.902;6.024;2023-02-25T02:56:58;21.20;;;3.55;;
52458;SDS011;38372;52.902;6.024;2023-02-25T02:59:27;20.15;;;4.32;;
52458;SDS011;38372;52.902;6.024;2023-02-25T03:01:59;15.98;;;2.95;;
52458;SDS011;38372;52.902;6.024;2023-02-25T03:04:38;26.13;;;5.18;;
52458;SDS011;38372;52.902;6.024;2023-02-25T03:07:07;22.48;;;3.92;;
52458;SDS011;38372;52.902;6.024;2023-02-25T03:09:46;21.17;;;3.28;;
52458;SDS011;38372;52.902;6.024;2023-02-25T03:12:14;14.55;;;3.38;;
52458;SDS011;38372;52.902;6.024;2023-02-25T03:14:41;14.57;;;2.70;;
52458;SDS011;38372;52.902;6.024;2023-02-25T03:17:19;22.52;;;2.83;;
52458;SDS011;38372;52.902;6.024;2023-02-25T03:19:56;18.83;;;3.47;;
52458;SDS011;38372;52.902;6.024;2023-02-25T03:22:38;17.02;;;3.97;;
52458;SDS011;38372;52.902;6.024;2023-02-25T03:25:29;25.13;;;4.28;;
52458;SDS011;38372;52.902;6.024;2023-02-25T03:28:04;18.50;;;3.47;;
52458;SDS011;38372;52.902;6.024;2023-02-25T03:33:53;16.88;;;2.92;;
52458;SDS011;38372;52.902;6.024;2023-02-25T03:36:31;18.08;;;2.97;;
52458;SDS011;38372;52.902;6.024;2023-02-25T03:39:05;16.55;;;3.47;;
52458;SDS011;38372;52.902;6.024;2023-02-25T03:41:36;16.73;;;3.22;;
52458;SDS011;38372;52.902;6.024;2023-02-25T03:44:06;17.98;;;2.65;;
52458;SDS011;38372;52.902;6.024;2023-02-25T03:49:02;11.38;;;2.78;;
52458;SDS011;38372;52.902;6.024;2023-02-25T03:51:30;24.00;;;2.92;;
52458;SDS011;38372;52.902;6.024;2023-02-25T03:53:59;14.20;;;3.00;;
52458;SDS011;38372;52.902;6.024;2023-02-25T03:56:26;20.30;;;3.13;;
52458;SDS011;38372;52.902;6.024;2023-02-25T03:58:52;20.77;;;2.90;;
52458;SDS011;38372;52.902;6.024;2023-02-25T04:01:23;16.92;;;2.45;;
52458;SDS011;38372;52.902;6.024;2023-02-25T04:03:53;19.73;;;2.90;;
52458;SDS011;38372;52.902;6.024;2023-02-25T04:06:20;21.20;;;3.25;;
52458;SDS011;38372;52.902;6.024;2023-02-25T04:08:47;18.45;;;2.85;;
52458;SDS011;38372;52.902;6.024;2023-02-25T04:11:13;23.88;;;3.17;;
52458;SDS011;38372;52.902;6.024;2023-02-25T04:13:39;18.75;;;3.58;;
52458;SDS011;38372;52.902;6.024;2023-02-25T04:16:04;19.17;;;3.67;;
52458;SDS011;38372;52.902;6.024;2023-02-25T04:18:32;24.88;;;4.38;;
52458;SDS011;38372;52.902;6.024;2023-02-25T04:20:58;17.70;;;3.00;;
52458;SDS011;38372;52.902;6.024;2023-02-25T04:23:25;19.60;;;5.10;;
52458;SDS011;38372;52.902;6.024;2023-02-25T04:25:50;20.55;;;3.13;;
52458;SDS011;38372;52.902;6.024;2023-02-25T04:28:16;22.88;;;4.97;;
52458;SDS011;38372;52.902;6.024;2023-02-25T04:30:42;13.43;;;2.92;;
52458;SDS011;38372;52.902;6.024;2023-02-25T04:33:09;27.90;;;4.28;;
52458;SDS011;38372;52.902;6.024;2023-02-25T04:35:36;11.88;;;2.47;;
52458;SDS011;38372;52.902;6.024;2023-02-25T04:38:02;14.10;;;3.53;;
52458;SDS011;38372;52.902;6.024;2023-02-25T04:40:28;17.13;;;2.58;;
52458;SDS011;38372;52.902;6.024;2023-02-25T04:42:53;14.10;;;3.80;;
52458;SDS011;38372;52.902;6.024;2023-02-25T04:45:19;16.08;;;3.45;;
52458;SDS011;38372;52.902;6.024;2023-02-25T04:50:21;11.68;;;2.47;;
52458;SDS011;38372;52.902;6.024;2023-02-25T04:52:48;16.95;;;3.45;;
52458;SDS011;38372;52.902;6.024;2023-02-25T04:55:14;15.60;;;2.53;;
52458;SDS011;38372;52.902;6.024;2023-02-25T04:57:40;19.88;;;2.53;;
52458;SDS011;38372;52.902;6.024;2023-02-25T05:02:58;11.98;;;2.20;;
52458;SDS011;38372;52.902;6.024;2023-02-25T05:05:24;13.85;;;2.40;;
52458;SDS011;38372;52.902;6.024;2023-02-25T05:07:50;16.35;;;2.33;;
52458;SDS011;38372;52.902;6.024;2023-02-25T05:10:16;19.10;;;3.60;;
52458;SDS011;38372;52.902;6.024;2023-02-25T05:12:42;13.43;;;2.80;;
52458;SDS011;38372;52.902;6.024;2023-02-25T05:15:08;26.17;;;4.00;;
52458;SDS011;38372;52.902;6.024;2023-02-25T05:17:34;14.80;;;2.70;;
52458;SDS011;38372;52.902;6.024;2023-02-25T05:20:00;13.75;;;2.35;;
52458;SDS011;38372;52.902;6.024;2023-02-25T05:22:26;14.43;;;3.33;;
52458;SDS011;38372;52.902;6.024;2023-02-25T05:24:52;22.25;;;3.22;;
52458;SDS011;38372;52.902;6.024;2023-02-25T05:27:18;8.35;;;2.38;;
52458;SDS011;38372;52.902;6.024;2023-02-25T05:29:44;18.67;;;2.47;;
52458;SDS011;38372;52.902;6.024;2023-02-25T05:32:09;12.05;;;2.92;;
52458;SDS011;38372;52.902;6.024;2023-02-25T05:34:35;10.63;;;2.88;;
52458;SDS011;38372;52.902;6.024;2023-02-25T05:37:01;11.05;;;2.33;;
52458;SDS011;38372;52.902;6.024;2023-02-25T05:39:27;16.73;;;2.30;;
52458;SDS011;38372;52.902;6.024;2023-02-25T05:41:53;12.48;;;1.67;;
52458;SDS011;38372;52.902;6.024;2023-02-25T05:44:18;10.98;;;2.13;;
52458;SDS011;38372;52.902;6.024;2023-02-25T05:46:44;11.18;;;2.45;;
52458;SDS011;38372;52.902;6.024;2023-02-25T05:49:10;10.23;;;2.60;;
52458;SDS011;38372;52.902;6.024;2023-02-25T05:51:36;7.03;;;1.88;;
52458;SDS011;38372;52.902;6.024;2023-02-25T05:54:01;13.98;;;1.85;;
52458;SDS011;38372;52.902;6.024;2023-02-25T05:56:28;12.70;;;2.00;;
52458;SDS011;38372;52.902;6.024;2023-02-25T05:58:54;9.90;;;2.42;;
52458;SDS011;38372;52.902;6.024;2023-02-25T06:01:22;13.20;;;2.83;;
52458;SDS011;38372;52.902;6.024;2023-02-25T06:03:51;11.32;;;2.40;;
52458;SDS011;38372;52.902;6.024;2023-02-25T06:06:18;5.95;;;1.33;;
52458;SDS011;38372;52.902;6.024;2023-02-25T06:08:47;10.47;;;1.50;;
52458;SDS011;38372;52.902;6.024;2023-02-25T06:11:17;3.97;;;1.00;;
52458;SDS011;38372;52.902;6.024;2023-02-25T06:13:51;7.47;;;1.30;;
52458;SDS011;38372;52.902;6.024;2023-02-25T06:16:18;5.80;;;1.35;;
52458;SDS011;38372;52.902;6.024;2023-02-25T06:18:45;4.07;;;1.05;;
52458;SDS011;38372;52.902;6.024;2023-02-25T06:21:12;8.43;;;1.48;;
52458;SDS011;38372;52.902;6.024;2023-02-25T06:23:39;8.13;;;1.00;;
52458;SDS011;38372;52.902;6.024;2023-02-25T06:26:07;3.53;;;0.88;;
52458;SDS011;38372;52.902;6.024;2023-02-25T06:28:35;7.28;;;0.85;;
52458;SDS011;38372;52.902;6.024;2023-02-25T06:31:01;2.65;;;0.47;;
52458;SDS011;38372;52.902;6.024;2023-02-25T06:33:30;5.18;;;0.80;;
52458;SDS011;38372;52.902;6.024;2023-02-25T06:35:56;3.35;;;0.85;;
52458;SDS011;38372;52.902;6.024;2023-02-25T06:38:23;5.20;;;0.75;;
52458;SDS011;38372;52.902;6.024;2023-02-25T06:40:49;4.90;;;0.80;;
52458;SDS011;38372;52.902;6.024;2023-02-25T06:43:15;3.83;;;0.75;;
52458;SDS011;38372;52.902;6.024;2023-02-25T06:45:41;5.38;;;1.60;;
52458;SDS011;38372;52.902;6.024;2023-02-25T06:48:08;6.10;;;0.80;;
52458;SDS011;38372;52.902;6.024;2023-02-25T06:50:33;4.50;;;0.60;;
52458;SDS011;38372;52.902;6.024;2023-02-25T06:52:59;3.42;;;0.68;;
52458;SDS011;38372;52.902;6.024;2023-02-25T06:55:25;2.05;;;0.95;;
52458;SDS011;38372;52.902;6.024;2023-02-25T06:57:51;4.47;;;0.50;;
52458;SDS011;38372;52.902;6.024;2023-02-25T07:00:19;7.13;;;0.85;;
52458;SDS011;38372;52.902;6.024;2023-02-25T07:02:45;7.53;;;1.77;;
52458;SDS011;38372;52.902;6.024;2023-02-25T07:05:10;3.08;;;0.63;;
52458;SDS011;38372;52.902;6.024;2023-02-25T07:07:36;3.05;;;0.50;;
52458;SDS011;38372;52.902;6.024;2023-02-25T07:10:02;5.53;;;0.95;;
52458;SDS011;38372;52.902;6.024;2023-02-25T07:12:30;3.25;;;0.88;;
52458;SDS011;38372;52.902;6.024;2023-02-25T07:14:56;4.05;;;0.70;;
52458;SDS011;38372;52.902;6.024;2023-02-25T07:17:23;5.60;;;1.00;;
52458;SDS011;38372;52.902;6.024;2023-02-25T07:19:49;7.82;;;1.10;;
52458;SDS011;38372;52.902;6.024;2023-02-25T07:22:15;4.93;;;1.00;;
52458;SDS011;38372;52.902;6.024;2023-02-25T07:24:42;4.72;;;1.00;;
52458;SDS011;38372;52.902;6.024;2023-02-25T07:27:09;6.90;;;1.50;;
52458;SDS011;38372;52.902;6.024;2023-02-25T07:29:37;3.53;;;0.85;;
52458;SDS011;38372;52.902;6.024;2023-02-25T07:32:03;6.25;;;1.00;;
52458;SDS011;38372;52.902;6.024;2023-02-25T07:34:29;7.18;;;1.10;;
52458;SDS011;38372;52.902;6.024;2023-02-25T07:36:55;4.22;;;1.02;;
52458;SDS011;38372;52.902;6.024;2023-02-25T07:39:21;9.80;;;1.38;;
52458;SDS011;38372;52.902;6.024;2023-02-25T07:41:47;6.18;;;1.02;;
52458;SDS011;38372;52.902;6.024;2023-02-25T07:44:13;5.43;;;0.85;;
52458;SDS011;38372;52.902;6.024;2023-02-25T07:46:39;5.40;;;1.27;;
52458;SDS011;38372;52.902;6.024;2023-02-25T07:49:05;6.50;;;1.00;;
52458;SDS011;38372;52.902;6.024;2023-02-25T07:51:32;5.25;;;1.05;;
52458;SDS011;38372;52.902;6.024;2023-02-25T07:53:58;8.90;;;1.27;;
52458;SDS011;38372;52.902;6.024;2023-02-25T07:56:26;6.40;;;0.95;;
52458;SDS011;38372;52.902;6.024;2023-02-25T07:58:53;4.38;;;0.80;;
52458;SDS011;38372;52.902;6.024;2023-02-25T08:03:53;5.68;;;1.13;;
52458;SDS011;38372;52.902;6.024;2023-02-25T08:06:20;5.60;;;1.10;;
52458;SDS011;38372;52.902;6.024;2023-02-25T08:08:46;4.38;;;1.08;;
52458;SDS011;38372;52.902;6.024;2023-02-25T08:11:14;5.18;;;1.85;;
52458;SDS011;38372;52.902;6.024;2023-02-25T08:13:40;6.88;;;2.75;;
52458;SDS011;38372;52.902;6.024;2023-02-25T08:16:07;4.97;;;1.42;;
52458;SDS011;38372;52.902;6.024;2023-02-25T08:18:35;4.45;;;1.58;;
52458;SDS011;38372;52.902;6.024;2023-02-25T08:21:01;3.45;;;0.75;;
52458;SDS011;38372;52.902;6.024;2023-02-25T08:23:28;5.03;;;1.00;;
52458;SDS011;38372;52.902;6.024;2023-02-25T08:25:55;6.45;;;1.10;;
52458;SDS011;38372;52.902;6.024;2023-02-25T08:28:23;6.32;;;1.48;;
52458;SDS011;38372;52.902;6.024;2023-02-25T08:30:50;6.85;;;1.40;;
52458;SDS011;38372;52.902;6.024;2023-02-25T08:33:17;4.45;;;1.25;;
52458;SDS011;38372;52.902;6.024;2023-02-25T08:35:55;6.40;;;1.77;;
52458;SDS011;38372;52.902;6.024;2023-02-25T08:38:53;5.60;;;1.50;;
52458;SDS011;38372;52.902;6.024;2023-02-25T08:41:21;7.03;;;1.02;;
52458;SDS011;38372;52.902;6.024;2023-02-25T08:43:49;8.23;;;1.35;;
52458;SDS011;38372;52.902;6.024;2023-02-25T08:46:18;11.05;;;1.88;;
52458;SDS011;38372;52.902;6.024;2023-02-25T08:48:47;5.35;;;1.55;;
52458;SDS011;38372;52.902;6.024;2023-02-25T08:51:14;9.63;;;1.88;;
52458;SDS011;38372;52.902;6.024;2023-02-25T08:53:40;9.25;;;1.95;;
52458;SDS011;38372;52.902;6.024;2023-02-25T08:56:06;9.05;;;1.58;;
52458;SDS011;38372;52.902;6.024;2023-02-25T08:58:34;10.02;;;1.60;;
52458;SDS011;38372;52.902;6.024;2023-02-25T09:00:59;8.00;;;1.55;;
52458;SDS011;38372;52.902;6.024;2023-02-25T09:03:25;9.95;;;1.58;;
52458;SDS011;38372;52.902;6.024;2023-02-25T09:05:52;10.63;;;2.25;;
52458;SDS011;38372;52.902;6.024;2023-02-25T09:08:20;11.35;;;2.88;;
52458;SDS011;38372;52.902;6.024;2023-02-25T09:10:46;5.30;;;1.52;;
52458;SDS011;38372;52.902;6.024;2023-02-25T09:13:12;7.10;;;1.30;;
52458;SDS011;38372;52.902;6.024;2023-02-25T09:15:38;5.38;;;1.73;;
52458;SDS011;38372;52.902;6.024;2023-02-25T09:18:04;6.07;;;1.20;;
52458;SDS011;38372;52.902;6.024;2023-02-25T09:20:30;8.05;;;1.30;;
52458;SDS011;38372;52.902;6.024;2023-02-25T09:22:55;7.18;;;1.50;;
52458;SDS011;38372;52.902;6.024;2023-02-25T09:25:23;8.70;;;1.73;;
52458;SDS011;38372;52.902;6.024;2023-02-25T09:27:50;6.88;;;1.38;;
52458;SDS011;38372;52.902;6.024;2023-02-25T09:30:15;9.48;;;1.70;;
52458;SDS011;38372;52.902;6.024;2023-02-25T09:32:42;5.47;;;1.10;;
52458;SDS011;38372;52.902;6.024;2023-02-25T09:35:09;8.30;;;1.70;;
52458;SDS011;38372;52.902;6.024;2023-02-25T09:37:36;4.55;;;1.25;;
52458;SDS011;38372;52.902;6.024;2023-02-25T09:40:02;6.32;;;1.05;;
52458;SDS011;38372;52.902;6.024;2023-02-25T09:43:15;8.30;;;1.52;;
52458;SDS011;38372;52.902;6.024;2023-02-25T09:45:22;7.85;;;1.55;;
52458;SDS011;38372;52.902;6.024;2023-02-25T09:47:51;7.25;;;1.50;;
52458;SDS011;38372;52.902;6.024;2023-02-25T09:50:24;6.75;;;1.63;;
52458;SDS011;38372;52.902;6.024;2023-02-25T09:53:15;9.13;;;2.10;;
52458;SDS011;38372;52.902;6.024;2023-02-25T09:55:46;8.38;;;1.67;;
52458;SDS011;38372;52.902;6.024;2023-02-25T09:58:17;10.63;;;1.90;;
52458;SDS011;38372;52.902;6.024;2023-02-25T10:04:21;8.88;;;1.73;;
52458;SDS011;38372;52.902;6.024;2023-02-25T10:06:38;7.68;;;1.63;;
52458;SDS011;38372;52.902;6.024;2023-02-25T10:11:45;9.60;;;1.55;;
52458;SDS011;38372;52.902;6.024;2023-02-25T10:17:41;10.00;;;2.20;;
52458;SDS011;38372;52.902;6.024;2023-02-25T10:25:43;5.80;;;1.60;;
52458;SDS011;38372;52.902;6.024;2023-02-25T10:28:16;5.95;;;1.67;;
52458;SDS011;38372;52.902;6.024;2023-02-25T10:31:04;9.15;;;1.60;;
52458;SDS011;38372;52.902;6.024;2023-02-25T10:33:37;8.48;;;1.30;;
52458;SDS011;38372;52.902;6.024;2023-02-25T10:38:50;5.75;;;1.23;;
52458;SDS011;38372;52.902;6.024;2023-02-25T10:41:18;11.98;;;1.70;;
52458;SDS011;38372;52.902;6.024;2023-02-25T10:43:46;8.45;;;1.58;;
52458;SDS011;38372;52.902;6.024;2023-02-25T10:48:46;15.73;;;2.22;;
52458;SDS011;38372;52.902;6.024;2023-02-25T10:51:18;7.40;;;1.80;;
52458;SDS011;38372;52.902;6.024;2023-02-25T10:56:25;6.70;;;1.10;;
52458;SDS011;38372;52.902;6.024;2023-02-25T10:59:04;10.45;;;1.88;;
52458;SDS011;38372;52.902;6.024;2023-02-25T11:01:42;8.25;;;1.63;;
52458;SDS011;38372;52.902;6.024;2023-02-25T11:04:12;14.77;;;3.53;;
52458;SDS011;38372;52.902;6.024;2023-02-25T11:06:40;6.97;;;1.85;;
52458;SDS011;38372;52.902;6.024;2023-02-25T11:11:51;10.27;;;1.88;;
52458;SDS011;38372;52.902;6.024;2023-02-25T11:14:28;14.00;;;2.58;;
52458;SDS011;38372;52.902;6.024;2023-02-25T11:19:37;7.32;;;2.05;;
52458;SDS011;38372;52.902;6.024;2023-02-25T11:22:09;8.30;;;1.73;;
52458;SDS011;38372;52.902;6.024;2023-02-25T11:24:42;7.63;;;2.50;;
52458;SDS011;38372;52.902;6.024;2023-02-25T11:27:46;11.10;;;1.90;;
52458;SDS011;38372;52.902;6.024;2023-02-25T11:32:43;9.05;;;2.00;;
52458;SDS011;38372;52.902;6.024;2023-02-25T11:35:17;5.90;;;1.48;;
52458;SDS011;38372;52.902;6.024;2023-02-25T11:37:45;11.27;;;2.35;;
52458;SDS011;38372;52.902;6.024;2023-02-25T11:45:26;10.75;;;1.90;;
52458;SDS011;38372;52.902;6.024;2023-02-25T11:47:55;10.18;;;1.58;;
52458;SDS011;38372;52.902;6.024;2023-02-25T11:50:26;8.05;;;1.50;;
52458;SDS011;38372;52.902;6.024;2023-02-25T11:58:32;7.25;;;2.17;;
52458;SDS011;38372;52.902;6.024;2023-02-25T12:09:52;8.43;;;1.75;;
52458;SDS011;38372;52.902;6.024;2023-02-25T12:15:21;12.45;;;1.80;;
52458;SDS011;38372;52.902;6.024;2023-02-25T12:39:20;6.75;;;1.00;;
52458;SDS011;38372;52.902;6.024;2023-02-25T12:41:59;7.82;;;2.05;;
52458;SDS011;38372;52.902;6.024;2023-02-25T12:44:55;6.03;;;1.40;;
52458;SDS011;38372;52.902;6.024;2023-02-25T12:55:35;5.35;;;1.08;;
52458;SDS011;38372;52.902;6.024;2023-02-25T12:58:49;6.10;;;1.10;;
52458;SDS011;38372;52.902;6.024;2023-02-25T13:04:27;5.88;;;1.33;;
52458;SDS011;38372;52.902;6.024;2023-02-25T13:07:17;4.63;;;1.17;;
52458;SDS011;38372;52.902;6.024;2023-02-25T13:29:43;6.50;;;1.73;;
52458;SDS011;38372;52.902;6.024;2023-02-25T13:40:35;6.18;;;1.13;;
52458;SDS011;38372;52.902;6.024;2023-02-25T13:51:53;6.18;;;1.60;;
52458;SDS011;38372;52.902;6.024;2023-02-25T14:02:49;6.88;;;1.30;;
52458;SDS011;38372;52.902;6.024;2023-02-25T14:19:33;5.47;;;1.48;;
52458;SDS011;38372;52.902;6.024;2023-02-25T14:22:19;11.23;;;1.50;;
52458;SDS011;38372;52.902;6.024;2023-02-25T14:24:55;6.20;;;1.35;;
52458;SDS011;38372;52.902;6.024;2023-02-25T14:32:57;7.20;;;1.50;;
52458;SDS011;38372;52.902;6.024;2023-02-25T14:44:11;6.90;;;1.58;;
52458;SDS011;38372;52.902;6.024;2023-02-25T14:46:53;3.72;;;1.20;;
52458;SDS011;38372;52.902;6.024;2023-02-25T14:49:27;8.57;;;1.88;;
52458;SDS011;38372;52.902;6.024;2023-02-25T14:52:06;5.47;;;1.27;;
52458;SDS011;38372;52.902;6.024;2023-02-25T15:03:00;5.95;;;1.33;;
52458;SDS011;38372;52.902;6.024;2023-02-25T15:16:29;6.25;;;1.30;;
52458;SDS011;38372;52.902;6.024;2023-02-25T15:22:28;5.20;;;1.00;;
52458;SDS011;38372;52.902;6.024;2023-02-25T15:25:42;4.05;;;1.20;;
52458;SDS011;38372;52.902;6.024;2023-02-25T15:30:21;5.90;;;1.60;;
52458;SDS011;38372;52.902;6.024;2023-02-25T15:32:56;9.18;;;1.45;;
52458;SDS011;38372;52.902;6.024;2023-02-25T15:38:20;9.30;;;1.23;;
52458;SDS011;38372;52.902;6.024;2023-02-25T15:41:03;5.75;;;1.40;;
52458;SDS011;38372;52.902;6.024;2023-02-25T15:44:38;9.48;;;1.35;;
52458;SDS011;38372;52.902;6.024;2023-02-25T15:46:44;6.82;;;1.30;;
52458;SDS011;38372;52.902;6.024;2023-02-25T15:52:00;10.88;;;1.20;;
52458;SDS011;38372;52.902;6.024;2023-02-25T15:56:56;10.02;;;1.58;;
52458;SDS011;38372;52.902;6.024;2023-02-25T15:59:40;7.20;;;1.98;;
52458;SDS011;38372;52.902;6.024;2023-02-25T16:07:34;6.88;;;1.88;;
52458;SDS011;38372;52.902;6.024;2023-02-25T16:10:21;8.85;;;1.80;;
52458;SDS011;38372;52.902;6.024;2023-02-25T16:12:52;9.57;;;1.70;;
52458;SDS011;38372;52.902;6.024;2023-02-25T16:15:24;6.10;;;1.40;;
52458;SDS011;38372;52.902;6.024;2023-02-25T16:17:55;6.57;;;1.30;;
52458;SDS011;38372;52.902;6.024;2023-02-25T16:20:23;10.25;;;1.35;;
52458;SDS011;38372;52.902;6.024;2023-02-25T16:22:58;7.25;;;1.30;;
52458;SDS011;38372;52.902;6.024;2023-02-25T16:25:33;8.75;;;1.55;;
52458;SDS011;38372;52.902;6.024;2023-02-25T16:31:26;8.15;;;1.42;;
52458;SDS011;38372;52.902;6.024;2023-02-25T16:36:38;3.90;;;1.05;;
52458;SDS011;38372;52.902;6.024;2023-02-25T16:39:18;7.32;;;1.15;;
52458;SDS011;38372;52.902;6.024;2023-02-25T16:41:50;8.75;;;1.33;;
52458;SDS011;38372;52.902;6.024;2023-02-25T16:44:38;8.43;;;2.05;;
52458;SDS011;38372;52.902;6.024;2023-02-25T16:49:48;5.55;;;1.40;;
52458;SDS011;38372;52.902;6.024;2023-02-25T16:52:18;8.20;;;1.40;;
52458;SDS011;38372;52.902;6.024;2023-02-25T16:55:05;5.53;;;1.40;;
52458;SDS011;38372;52.902;6.024;2023-02-25T16:57:36;5.30;;;1.13;;
52458;SDS011;38372;52.902;6.024;2023-02-25T17:02:44;5.78;;;1.50;;
52458;SDS011;38372;52.902;6.024;2023-02-25T17:05:31;4.65;;;0.93;;
52458;SDS011;38372;52.902;6.024;2023-02-25T17:08:02;11.55;;;1.27;;
52458;SDS011;38372;52.902;6.024;2023-02-25T17:10:34;8.57;;;1.40;;
52458;SDS011;38372;52.902;6.024;2023-02-25T17:13:09;8.43;;;1.42;;
52458;SDS011;38372;52.902;6.024;2023-02-25T17:15:40;3.47;;;1.05;;
52458;SDS011;38372;52.902;6.024;2023-02-25T17:18:26;8.45;;;1.45;;
52458;SDS011;38372;52.902;6.024;2023-02-25T17:21:38;6.93;;;1.40;;
52458;SDS011;38372;52.902;6.024;2023-02-25T17:23:54;8.73;;;1.50;;
52458;SDS011;38372;52.902;6.024;2023-02-25T17:26:22;11.13;;;2.55;;
52458;SDS011;38372;52.902;6.024;2023-02-25T17:28:50;6.72;;;1.70;;
52458;SDS011;38372;52.902;6.024;2023-02-25T17:31:20;6.78;;;1.63;;
52458;SDS011;38372;52.902;6.024;2023-02-25T17:33:51;5.57;;;1.55;;
52458;SDS011;38372;52.902;6.024;2023-02-25T17:36:20;9.85;;;1.92;;
52458;SDS011;38372;52.902;6.024;2023-02-25T17:38:51;7.88;;;2.95;;
52458;SDS011;38372;52.902;6.024;2023-02-25T17:41:20;6.57;;;1.67;;
52458;SDS011;38372;52.902;6.024;2023-02-25T17:43:46;5.90;;;1.23;;
52458;SDS011;38372;52.902;6.024;2023-02-25T17:48:52;8.38;;;1.25;;
52458;SDS011;38372;52.902;6.024;2023-02-25T17:51:31;8.88;;;1.58;;
52458;SDS011;38372;52.902;6.024;2023-02-25T17:53:59;8.85;;;1.75;;
52458;SDS011;38372;52.902;6.024;2023-02-25T17:56:32;8.43;;;1.50;;
52458;SDS011;38372;52.902;6.024;2023-02-25T17:59:03;9.77;;;1.58;;
52458;SDS011;38372;52.902;6.024;2023-02-25T18:01:30;9.80;;;1.80;;
52458;SDS011;38372;52.902;6.024;2023-02-25T18:04:16;7.28;;;1.73;;
52458;SDS011;38372;52.902;6.024;2023-02-25T18:06:50;8.50;;;1.45;;
52458;SDS011;38372;52.902;6.024;2023-02-25T18:11:55;4.50;;;1.30;;
52458;SDS011;38372;52.902;6.024;2023-02-25T18:14:24;9.10;;;1.40;;
52458;SDS011;38372;52.902;6.024;2023-02-25T18:17:10;7.45;;;1.90;;
52458;SDS011;38372;52.902;6.024;2023-02-25T18:19:43;3.58;;;1.25;;
52458;SDS011;38372;52.902;6.024;2023-02-25T18:22:21;10.90;;;2.03;;
52458;SDS011;38372;52.902;6.024;2023-02-25T18:24:55;5.25;;;1.40;;
52458;SDS011;38372;52.902;6.024;2023-02-25T18:27:27;6.38;;;1.42;;
52458;SDS011;38372;52.902;6.024;2023-02-25T18:32:43;3.95;;;1.20;;
52458;SDS011;38372;52.902;6.024;2023-02-25T18:35:12;13.02;;;2.10;;
52458;SDS011;38372;52.902;6.024;2023-02-25T18:37:38;13.30;;;1.60;;
52458;SDS011;38372;52.902;6.024;2023-02-25T18:40:05;7.35;;;1.65;;
52458;SDS011;38372;52.902;6.024;2023-02-25T18:42:34;6.20;;;1.88;;
52458;SDS011;38372;52.902;6.024;2023-02-25T18:45:04;7.50;;;1.42;;
52458;SDS011;38372;52.902;6.024;2023-02-25T18:47:44;5.63;;;1.77;;
52458;SDS011;38372;52.902;6.024;2023-02-25T18:50:30;5.45;;;1.92;;
52458;SDS011;38372;52.902;6.024;2023-02-25T18:53:23;5.38;;;1.20;;
52458;SDS011;38372;52.902;6.024;2023-02-25T18:56:17;7.70;;;2.25;;
52458;SDS011;38372;52.902;6.024;2023-02-25T18:59:04;7.70;;;1.55;;
52458;SDS011;38372;52.902;6.024;2023-02-25T19:01:40;4.20;;;1.50;;
52458;SDS011;38372;52.902;6.024;2023-02-25T19:04:15;8.73;;;1.88;;
52458;SDS011;38372;52.902;6.024;2023-02-25T19:06:53;10.18;;;2.28;;
52458;SDS011;38372;52.902;6.024;2023-02-25T19:09:34;6.53;;;1.88;;
52458;SDS011;38372;52.902;6.024;2023-02-25T19:12:14;7.18;;;2.13;;